Domingo, 14 de Febrero del 2016

portal contactenos mapa del sitio buscar Revisar Correo Corporativo

Reporte METAR Consolidado

|| Reporte TAF Consolidado ||

Informe METAR emitido cada hora.

METAR

ESTACIÓN

AEROPUERTO

HORA UTC

DESCRIPCIÓN

SLGM

Guayaramerín

10-49S|65-20W

20:00

SLGM 142000Z 34008KT 9999 SCT017 34/23 Q1007 A2976 HR54=

SLRI

Riberalta

11-00S|66-04W

20:00

SLRI 142000Z 36006KT 9999 SCT017 33/25 Q1007 A2974 HR61=

SLCO

Cobija

11-02S|68-47W

20:00

SLCO 142000Z 33012KT 9999 BKN020 31/25 Q1008 A2978 981.0 HR70 SH/N/W=

SLJO

San Joaquin

13-03S|64-39W

20:00

SLJO 142000Z 32012KT 9999 FEW017 35/25 Q1007 A2974 HR57 RWY NML=

SLRA

San Ramón

13-15S|64-36W

20:00

SLRA 142000Z 32010KT 9999 SCT017 35/24 Q1006 A2971 HR55 RWY NML=

SLMG

San Magdalena

13-15S|64-03W

20:00

SLMG 142000Z 32006KT 9999 SCT017 35/25 Q1007 A2975 HR58 RWY NML=

SLBU

Baures

13-39S|63-42W

20:00

SLBU 142000Z 35006KT 9999 SCT017 35/25 Q1007 A2974 HR58 RWY NML=

SLSA

Santa Ana de Yacuma

13-45S|65-26W

20:00

SLSA 142000Z 31016KT 9999 SCT017 34/24 Q1006 A2972 HR55=

SLSR

Santa Rosa

14-04S|66-47W

20:00

SLSR 142000Z 35012KT 9999 FEW017 35/25 Q1003 A2963 HR57 RWY NML=

SLRY

Reyes

14-18S|67-21W

20:00

SLRY 142000Z 32008KT 9999 FEW020 33/24 Q1007 A2975 HR60 RWY OPR 1 100M=

SLRQ

Rurrenabaque

14-25S|67-29W

20:00

SLRQ 142000Z 36010KT 9999 SCT016 35/26 Q1005 A2970 HR61=

SLAP

Apolo

14-44S|68-24W

-

Mensaje no Recibido

SLTR

Trinidad

14-49S|64-54W

20:00

SLTR 142000Z 32006KT 290V360 8000 VCSH FEW017 33/25 Q1006 A2972 988.1 HR62 SH S/NW TEMPO SHRA=

SLSB

San Borja

14-51S|66-44W

20:00

SLSB 142000Z 34008KT 9999 SCT020 34/25 Q1005 A2969 HR57 RWY NML=

SLSM

San Ignacio de Moxos

14-57S|65-38W

20:00

SLSM 142000Z 32008KT 9999 SCT017 34/24 Q1006 A2971 HR57 RWY NML=

SLAS

Ascención de Guarayos

15-55S|63-09W

20:00

SLAS 142000Z 33005KT 9999 FEW017 32/25 Q1008 A2978 HR67 RWY NML=

SLCP

Concepción

16-08S|62-01W

20:00

SLCP 142000Z 32008KT 9999 SCT017 32/24 Q1010 A2985 HR61 RWY NML=

SLLP

Internaciónal El Alto

16-08S|68-10W

20:00

SLLP 142000Z 05018KT 9999 FEW017 FEW020CB SCT070 BKN200 12/03 Q1035 A3057 626.3 P4754 CB/SH N/NE/NW HR55 NOSIG=

SLJV

San Javier

16-16S|62-28W

20:00

SLJV 142000Z 34010KT 9999 SCT020 BKN200 33/24 Q1007 A2974 HR60 RWY NML=

SLTI

San Matías

16-20S|58-24W

20:00

SLTI 142000Z 00000KT 9999 SCT020 OVC200 34/24 Q1013 A2991 HR54 RWY NML=

SLSI

San Ignacio de Velasco

16-23S|60-57W

20:00

SLSI 142000Z 31006KT 9999 SCT017 34/23 Q1007 A2974 HR51 RWY NML=

SLCB

Cochabamba

17-25S|66-10W

20:00

SLCB 142000Z 22006KT 9999 FEW025 FEW027CB SCT070 BKN200 23/10 Q1023 A3022 750.0 HR42 CB/S/SW/W/NW SH/W FU NOSIG=

SLCN

Charaña

17-35S|69-25W

-

Mensaje no Recibido

SLVR

Internaciónal Viru Viru

17-38S|63-08W

20:00

SLVR 142000Z 34016KT 9999 FEW017 BKN027 FEW030CB BKN200 30/23 Q1008 A2977 HR67 CB/SE/S/SW/NW/N NOSIG=

SLET

El Trompillo

17-48S|63-10W

20:00

SLET 142000Z 32010KT 9999 BKN022 FEW030CB BKN070 29/23 Q1007 A2974 HR70 CB/N/NW NOSIG=

SLJE

San José de Chiquitos

17-49S|60-44W

18:00

SLJE 141800Z 36006KT 9999 FEW020 BKN200 34/23 Q1011 A2985 HR52 RWY HUM OPR=

SLOR

Oruro

17-57S|67-04W

20:00

SLOR 142000Z 08015G25KT 9999 FEW020 FEW023CB BKN200 17/07 Q1033 A3052 654.9 AC CB/SH W HR51=

SLRB

Roboré

18-19S|59-45W

20:00

SLRB 142000Z 36016KT 9999 FEW020 34/23 Q1008 A2977 HR52 RWY NML=

SLVG

Valle Grande

18-28S|64-05W

18:00

SLVG 141800Z 00000KT 9999 SCT023 BKN070 21/18 Q1024 A2024 HR83 RWY WET OPR=

SLPS

Puerto Suárez

18-58S|57-49W

20:00

SLPS 142000Z 00000KT 9999 NSC 35/25 Q1006 A2971 HR57=

SLSU

Sucre

19-00S|65-17W

20:00

SLSU 142000Z 08005KT 9999 FEW012 BKN200 16/12 Q1028 A3037 HR80=

SLPO

Potosí

19-32S|65-43W

17:00

SLPO 131700Z 06006KT 9999 SCT020 BKN200 19/09 Q1036 A3059 HR52=

SLAG

Monteagudo

19-49S|63-58W

17:00

SLAG 131700Z WO ATTN=

SLCA

Camiri

20-00S|63-31W

20:00

SLCA 142000Z 00000KT 9999 SCT033 BKN070 28/20 Q1010 A2983 HR63 RWY WET INOP=

SLUY

Uyuni

20-27S|62-52W

19:00

SLUY 141900Z 36010KT 9999 SCT020 SCT025CB BKN200 19/12 Q1030 A3044 656.0 CB/SH N/E/S/SW RETS HR65=

SLVM

Villamontes

21-15S|63-24W

19:00

SLVM 131900Z 00000KT 9999 SCT023 40/23 Q1000 A2955 HR38 FU=

SLTJ

Tarija

21-33S|64-42W

20:00

SLTJ 142000Z 18005KT 9999 FEW030 BKN200 26/18 Q1015 A2998 HR59=

SLYA

Yacuiba

21-57S|63-39W

20:00

SLYA 142000Z 04004KT 9999 BKN020 BKN070 27/24 Q1008 A2977 HR84=

SLBJ

Bermejo

22-46S|64-18W

17:00

SLBJ 131700Z 18010KT 9999 FEW015 SCT200 35/27 Q0999 A2950 HR62=